Central Oregon RPC :: STANDISH CA A

liberation: 2021-05-16  07:55     latitude: 40.366766     longitude: -120.422946 57 birds
# LOFT PRING MILES ARRIVAL SPEED ToWin
1 TOPIGEONUSA AU19-CORP-4912 276.13 2021-05-16 14:42:52.755 1191.502 00:00:00
2 TOPIGEONUSA AU18-CORP-4272 276.13 2021-05-16 14:42:54.043 1191.440 00:00:01
3 TOPIGEONUSA AU19-CORP-4908 276.13 2021-05-16 14:48:09.203 1176.292 00:05:16
4 TOPIGEONUSA AU19-CORP-4938 276.13 2021-05-16 14:48:21.688 1175.700 00:05:29
5 TOPIGEONUSA AU20-CORP-4841 276.13 2021-05-16 14:48:29.748 1175.318 00:05:37
6 RUETER FAMILY LOFT AU19-CORP-5477 304.637 2021-05-16 15:34:32.507 1166.728 00:09:33
7 TIM GRAVES AU17-CORP-2034 268.815 2021-05-16 14:50:00.048 1140.031 00:17:56
8 TOPIGEONUSA AU19-CORP-5140 276.13 2021-05-16 15:13:23.053 1108.592 00:30:30
9 TIM GRAVES AU20-CORP-4720 268.815 2021-05-16 15:18:32.320 1066.680 00:46:28
10 TOPIGEONUSA AU17-CAPT-0054 276.13 2021-05-16 15:39:21.048 1046.599 00:56:28
11 TOPIGEONUSA AU20-CORP-4377 276.13 2021-05-16 15:43:51.623 1036.533 01:00:59
12 RUETER FAMILY LOFT AU18-CORP-2744 304.637 2021-05-16 17:22:13.340 945.238 01:57:14
13 RUETER FAMILY LOFT AU19-CORP-5456 304.637 2021-05-16 17:27:27.555 936.591 02:02:28
14 ROCKY TOP AU18-CORP-3311 269.815 2021-05-16 16:23:34.040 933.749 01:50:01
15 TIM GRAVES AU17-SWWR-7335 268.815 2021-05-16 16:49:29.866 885.156 02:17:25
16 TIM GRAVES AU17-FHI-0202 268.815 2021-05-16 17:13:15.674 847.478 02:41:11
17 TIM GRAVES AU19-CORP-4239 268.815 2021-05-16 17:21:40.286 834.900 02:49:36
18 TOPIGEONUSA AU20-CORP-4333 276.13 2021-05-16 17:45:19.345 823.260 03:02:27
19 AMERICAN LOFT AU19-CORP-4647 274.861 2021-05-16 17:43:36.768 821.856 03:02:37
20 RUETER FAMILY LOFT AU19-CORP-5344 304.637 2021-05-16 19:06:28.168 798.488 03:41:29
21 AMERICAN LOFT AU19-CORP-4735 274.861 2021-05-16 18:32:49.253 758.450 03:51:49
22 AMERICAN LOFT AU16-CORP-7557 274.861 2021-05-16 19:23:32.696 702.576 04:42:32
23 ROCKY TOP AU19-CORP-4466 269.815 2021-05-16 19:34:56.643 678.446 05:01:24
24 ROCKY TOP AU19-CORP-4421 269.815 2021-05-16 19:50:26.427 663.751 05:16:53
25 AMERICAN LOFT AU19-CORP-4745 274.861 2021-05-16 20:12:13.819 656.179 05:31:14
26 RUETER FAMILY LOFT AU19-CORP-5250 304.637 2021-05-17 06:10:05.965 650.378 06:14:24
27 RUETER FAMILY LOFT AU19-CORP-5331 304.637 2021-05-17 06:13:56.502 647.361 06:18:14
28 RUETER FAMILY LOFT AU19-CORP-5377 304.637 2021-05-17 06:18:16.795 643.987 06:22:35
29 ROCKY TOP AU18-CORP-3334 269.815 2021-05-16 20:28:18.671 630.382 05:54:46
30 RUETER FAMILY LOFT AU20-CORP-4580 304.637 2021-05-17 07:00:52.785 612.640 07:05:11
31 AMERICAN LOFT AU19-CORP-4635 274.861 2021-05-17 05:48:40.037 602.472 06:36:57
32 RUETER FAMILY LOFT AU19-CORP-5438 304.637 2021-05-17 07:38:10.454 587.600 07:42:28
33 TOPIGEONUSA AU19-CORP-5136 276.13 2021-05-17 06:21:35.072 581.419 07:07:59
34 AMERICAN LOFT AU19-CORP-4673 274.861 2021-05-17 06:19:22.221 580.283 07:07:39
35 RUETER FAMILY LOFT AU20-CORP-4579 304.637 2021-05-17 08:00:23.277 573.635 08:04:41
36 AMERICAN LOFT AU16-CORP-7539 274.861 2021-05-17 06:41:09.772 565.500 07:29:27
37 AMERICAN LOFT AU19-CORP-4665 274.861 2021-05-17 07:00:00.111 553.315 07:48:17
38 AMERICAN LOFT AU19-CORP-4699 274.861 2021-05-17 07:11:18.776 546.248 07:59:36
39 TIM GRAVES AU16-CORP-6702 268.815 2021-05-17 07:10:45.761 534.564 08:07:58
40 ROCKY TOP AU19-CORP-4420 269.815 2021-05-17 07:25:58.822 527.483 08:21:43
41 ROCKY TOP AU18-CORP-3386 269.815 2021-05-17 07:40:38.070 519.035 08:36:22
42 TIM GRAVES AU17-CORP-0834 268.815 2021-05-17 09:01:31.766 475.103 09:58:44
43 ROCKY TOP AU20-CORP-4471 269.815 2021-05-17 10:05:13.723 448.201 11:00:58
44 ROCKY TOP AU18-CORP-3335 269.815 2021-05-17 10:07:37.317 447.191 11:03:21
45 ROCKY TOP AU20-CORP-4404 269.815 2021-05-17 10:11:20.915 445.627 11:07:05
46 TIM GRAVES AU16-AUB-0602 268.815 2021-05-17 10:10:38.832 444.267 11:07:51
47 AMERICAN LOFT AU15-CORP-3683 274.861 2021-05-17 12:04:59.883 410.212 12:53:17
48 RUETER FAMILY LOFT AU20-CORP-4683 304.637 2021-05-17 14:23:16.897 406.933 14:27:35
AMERICAN LOFT AU19-CORP-4693 0 0000-00-00 00:00:00.000 0.000 00:00:00
AMERICAN LOFT AU20-CORP-5485 0 0000-00-00 00:00:00.000 0.000 00:00:00
ROCKY TOP AU19-ARPU-29022 0 0000-00-00 00:00:00.000 0.000 00:00:00
ROCKY TOP AU20-ARPU-28101 0 0000-00-00 00:00:00.000 0.000 00:00:00
RUETER FAMILY LOFT AU20-OTC-110 0 0000-00-00 00:00:00.000 0.000 00:00:00
TIM GRAVES AU13-TCW-3849 0 0000-00-00 00:00:00.000 0.000 00:00:00
TIM GRAVES AU14-CORP-1963 0 0000-00-00 00:00:00.000 0.000 00:00:00
TOPIGEONUSA AU18-CORP-4205 0 0000-00-00 00:00:00.000 0.000 00:00:00
TOPIGEONUSA AU20-CORP-4861 0 0000-00-00 00:00:00.000 0.000 00:00:00